Thedford, Canada
Current Conditions -  °F | °C
As of 8:00 PM on Friday 24 Oct 2014 (Local Time) from CYZR Reporting Station
Overcast Overcast  
Wind Chill: 54°   Ceiling: 22000
Heat Index: 54°   Visibility: 9mi
Dew Point: 43°   Wind: 3mph
Humidity: 67%   Direction: 230°SW
Pressure: 29.96"   Gusts: NA
Location:  43.17°N, 81.85°W
Report Text: CYZR 250000Z AUTO 23003KT 9SM SCT043 BKN220 OVC240 12/06 A2996 RMK SLP151
Loading
Personal Weather Stations






























Interactive Weather Map New forecast layout! Learn more

10-Day Weather Forecast

Advertisements
Track Severe Weather on mobile